sensor_id;sensor_type;location;lat;lon;timestamp;pressure;altitude;pressure_sealevel;temperature;humidity
41686;BME280;27370;42.764;23.432;2023-07-20T00:01:21;95308.25;;;18.28;100.00
41686;BME280;27370;42.764;23.432;2023-07-20T00:03:47;95295.03;;;18.27;100.00
41686;BME280;27370;42.764;23.432;2023-07-20T00:06:23;95305.56;;;18.19;100.00
41686;BME280;27370;42.764;23.432;2023-07-20T00:08:50;95301.25;;;18.36;100.00
41686;BME280;27370;42.764;23.432;2023-07-20T00:11:16;95286.50;;;18.25;100.00
41686;BME280;27370;42.764;23.432;2023-07-20T00:13:42;95294.75;;;18.49;100.00
41686;BME280;27370;42.764;23.432;2023-07-20T00:16:08;95296.47;;;18.46;100.00
41686;BME280;27370;42.764;23.432;2023-07-20T00:18:33;95309.22;;;18.49;100.00
41686;BME280;27370;42.764;23.432;2023-07-20T00:21:02;95290.50;;;18.48;100.00
41686;BME280;27370;42.764;23.432;2023-07-20T00:23:28;95301.94;;;18.46;100.00
41686;BME280;27370;42.764;23.432;2023-07-20T00:25:54;95295.69;;;18.46;100.00
41686;BME280;27370;42.764;23.432;2023-07-20T00:28:20;95313.09;;;18.43;100.00
41686;BME280;27370;42.764;23.432;2023-07-20T00:30:47;95313.09;;;18.43;100.00
41686;BME280;27370;42.764;23.432;2023-07-20T00:33:16;95297.97;;;18.47;100.00
41686;BME280;27370;42.764;23.432;2023-07-20T00:35:42;95293.19;;;18.66;100.00
41686;BME280;27370;42.764;23.432;2023-07-20T00:38:08;95275.25;;;18.56;100.00
41686;BME280;27370;42.764;23.432;2023-07-20T00:40:37;95274.78;;;18.57;100.00
41686;BME280;27370;42.764;23.432;2023-07-20T00:43:03;95283.16;;;18.63;100.00
41686;BME280;27370;42.764;23.432;2023-07-20T00:45:29;95273.56;;;18.58;100.00
41686;BME280;27370;42.764;23.432;2023-07-20T00:47:55;95273.69;;;18.64;100.00
41686;BME280;27370;42.764;23.432;2023-07-20T00:50:22;95274.28;;;18.68;100.00
41686;BME280;27370;42.764;23.432;2023-07-20T00:52:48;95273.69;;;18.64;100.00
41686;BME280;27370;42.764;23.432;2023-07-20T00:55:14;95276.91;;;18.53;100.00
41686;BME280;27370;42.764;23.432;2023-07-20T00:57:40;95280.28;;;18.48;100.00
41686;BME280;27370;42.764;23.432;2023-07-20T01:00:06;95272.19;;;18.63;100.00
41686;BME280;27370;42.764;23.432;2023-07-20T01:02:31;95276.69;;;18.42;100.00
41686;BME280;27370;42.764;23.432;2023-07-20T01:04:57;95276.03;;;18.47;100.00
41686;BME280;27370;42.764;23.432;2023-07-20T01:07:26;95266.38;;;18.37;100.00
41686;BME280;27370;42.764;23.432;2023-07-20T01:10:11;95275.19;;;18.32;100.00
41686;BME280;27370;42.764;23.432;2023-07-20T01:12:47;95280.94;;;18.43;100.00
41686;BME280;27370;42.764;23.432;2023-07-20T01:15:14;95279.31;;;18.36;100.00
41686;BME280;27370;42.764;23.432;2023-07-20T01:17:39;95271.97;;;18.43;100.00
41686;BME280;27370;42.764;23.432;2023-07-20T01:20:11;95265.72;;;18.42;100.00
41686;BME280;27370;42.764;23.432;2023-07-20T01:33:11;95265.94;;;18.53;100.00
41686;BME280;27370;42.764;23.432;2023-07-20T01:35:38;95263.97;;;18.54;100.00
41686;BME280;27370;42.764;23.432;2023-07-20T01:38:07;95262.44;;;18.53;100.00
41686;BME280;27370;42.764;23.432;2023-07-20T01:40:34;95274.53;;;18.46;100.00
41686;BME280;27370;42.764;23.432;2023-07-20T01:43:00;95267.88;;;18.38;100.00
41686;BME280;27370;42.764;23.432;2023-07-20T01:45:25;95273.19;;;18.42;100.00
41686;BME280;27370;42.764;23.432;2023-07-20T01:47:52;95264.97;;;18.42;100.00
41686;BME280;27370;42.764;23.432;2023-07-20T01:50:17;95267.22;;;18.43;100.00
41686;BME280;27370;42.764;23.432;2023-07-20T01:52:43;95265.59;;;18.36;100.00
41686;BME280;27370;42.764;23.432;2023-07-20T01:55:08;95264.59;;;18.25;100.00
41686;BME280;27370;42.764;23.432;2023-07-20T01:57:34;95265.63;;;18.27;100.00
41686;BME280;27370;42.764;23.432;2023-07-20T01:59:59;95265.16;;;18.29;100.00
41686;BME280;27370;42.764;23.432;2023-07-20T02:02:26;95271.13;;;18.27;100.00
41686;BME280;27370;42.764;23.432;2023-07-20T02:04:53;95260.22;;;18.18;100.00
41686;BME280;27370;42.764;23.432;2023-07-20T02:07:19;95254.56;;;18.22;100.00
41686;BME280;27370;42.764;23.432;2023-07-20T02:09:45;95253.50;;;18.19;100.00
41686;BME280;27370;42.764;23.432;2023-07-20T02:12:10;95257.19;;;18.40;100.00
41686;BME280;27370;42.764;23.432;2023-07-20T02:14:36;95254.03;;;18.65;100.00
41686;BME280;27370;42.764;23.432;2023-07-20T02:17:01;95251.47;;;18.53;100.00
41686;BME280;27370;42.764;23.432;2023-07-20T02:19:29;95254.75;;;18.42;100.00
41686;BME280;27370;42.764;23.432;2023-07-20T02:21:55;95255.13;;;18.26;100.00
41686;BME280;27370;42.764;23.432;2023-07-20T02:24:20;95262.25;;;18.32;100.00
41686;BME280;27370;42.764;23.432;2023-07-20T02:26:46;95264.22;;;18.32;100.00
41686;BME280;27370;42.764;23.432;2023-07-20T02:29:11;95251.75;;;18.31;100.00
41686;BME280;27370;42.764;23.432;2023-07-20T02:31:37;95268.47;;;18.42;100.00
41686;BME280;27370;42.764;23.432;2023-07-20T02:34:07;95255.88;;;18.35;100.00
41686;BME280;27370;42.764;23.432;2023-07-20T02:36:34;95249.31;;;18.33;100.00
41686;BME280;27370;42.764;23.432;2023-07-20T02:38:59;95247.34;;;18.33;100.00
41686;BME280;27370;42.764;23.432;2023-07-20T02:41:26;95249.63;;;18.35;100.00
41686;BME280;27370;42.764;23.432;2023-07-20T02:43:52;95244.81;;;18.21;100.00
41686;BME280;27370;42.764;23.432;2023-07-20T02:46:17;95240.16;;;18.12;100.00
41686;BME280;27370;42.764;23.432;2023-07-20T02:48:43;95230.72;;;18.04;100.00
41686;BME280;27370;42.764;23.432;2023-07-20T02:51:08;95236.44;;;17.91;100.00
41686;BME280;27370;42.764;23.432;2023-07-20T02:53:34;95238.25;;;17.85;100.00
41686;BME280;27370;42.764;23.432;2023-07-20T02:56:00;95247.28;;;17.77;100.00
41686;BME280;27370;42.764;23.432;2023-07-20T02:58:26;95258.84;;;17.62;100.00
41686;BME280;27370;42.764;23.432;2023-07-20T03:00:51;95250.50;;;17.57;100.00
41686;BME280;27370;42.764;23.432;2023-07-20T03:03:17;95264.94;;;17.75;100.00
41686;BME280;27370;42.764;23.432;2023-07-20T03:05:43;95271.03;;;17.70;100.00
41686;BME280;27370;42.764;23.432;2023-07-20T03:08:08;95261.31;;;17.69;100.00
41686;BME280;27370;42.764;23.432;2023-07-20T03:10:41;95263.44;;;17.65;100.00
41686;BME280;27370;42.764;23.432;2023-07-20T03:13:07;95266.31;;;17.71;100.00
41686;BME280;27370;42.764;23.432;2023-07-20T03:15:32;95258.28;;;17.67;100.00
41686;BME280;27370;42.764;23.432;2023-07-20T03:17:58;95261.44;;;17.75;100.00
41686;BME280;27370;42.764;23.432;2023-07-20T03:20:24;95264.50;;;17.68;100.00
41686;BME280;27370;42.764;23.432;2023-07-20T03:22:50;95270.72;;;17.78;100.00
41686;BME280;27370;42.764;23.432;2023-07-20T03:25:15;95267.38;;;17.73;100.00
41686;BME280;27370;42.764;23.432;2023-07-20T03:27:41;95254.00;;;17.57;100.00
41686;BME280;27370;42.764;23.432;2023-07-20T03:30:07;95262.53;;;17.68;100.00
41686;BME280;27370;42.764;23.432;2023-07-20T03:32:35;95264.94;;;17.66;100.00
41686;BME280;27370;42.764;23.432;2023-07-20T03:35:01;95262.50;;;17.78;100.00
41686;BME280;27370;42.764;23.432;2023-07-20T03:37:27;95266.41;;;17.86;100.00
41686;BME280;27370;42.764;23.432;2023-07-20T03:39:52;95261.38;;;17.93;100.00
41686;BME280;27370;42.764;23.432;2023-07-20T03:42:18;95253.63;;;17.92;100.00
41686;BME280;27370;42.764;23.432;2023-07-20T03:44:44;95258.00;;;17.98;100.00
41686;BME280;27370;42.764;23.432;2023-07-20T03:47:09;95260.28;;;18.00;100.00
41686;BME280;27370;42.764;23.432;2023-07-20T03:49:35;95263.72;;;18.10;100.00
41686;BME280;27370;42.764;23.432;2023-07-20T03:52:01;95262.38;;;18.14;100.00
41686;BME280;27370;42.764;23.432;2023-07-20T03:54:29;95246.69;;;18.15;100.00
41686;BME280;27370;42.764;23.432;2023-07-20T03:56:54;95262.19;;;18.18;100.00
41686;BME280;27370;42.764;23.432;2023-07-20T03:59:20;95261.19;;;18.30;100.00
41686;BME280;27370;42.764;23.432;2023-07-20T04:01:46;95267.44;;;18.30;100.00
41686;BME280;27370;42.764;23.432;2023-07-20T04:04:11;95271.38;;;18.39;100.00
41686;BME280;27370;42.764;23.432;2023-07-20T04:06:37;95280.94;;;18.43;100.00
41686;BME280;27370;42.764;23.432;2023-07-20T04:09:03;95288.53;;;18.48;100.00
41686;BME280;27370;42.764;23.432;2023-07-20T04:11:30;95285.13;;;18.62;100.00
41686;BME280;27370;42.764;23.432;2023-07-20T04:13:56;95278.88;;;18.86;100.00
41686;BME280;27370;42.764;23.432;2023-07-20T04:16:22;95278.22;;;18.91;100.00
41686;BME280;27370;42.764;23.432;2023-07-20T04:18:47;95267.50;;;19.02;100.00
41686;BME280;27370;42.764;23.432;2023-07-20T04:21:13;95260.22;;;19.14;100.00
41686;BME280;27370;42.764;23.432;2023-07-20T04:23:38;95256.28;;;19.30;100.00
41686;BME280;27370;42.764;23.432;2023-07-20T04:26:04;95249.63;;;19.36;100.00
41686;BME280;27370;42.764;23.432;2023-07-20T04:28:32;95249.84;;;19.47;100.00
41686;BME280;27370;42.764;23.432;2023-07-20T04:31:09;95239.06;;;19.58;100.00
41686;BME280;27370;42.764;23.432;2023-07-20T04:33:36;95227.97;;;19.68;100.00
41686;BME280;27370;42.764;23.432;2023-07-20T04:36:02;95229.75;;;19.85;100.00
41686;BME280;27370;42.764;23.432;2023-07-20T04:38:34;95223.78;;;19.87;100.00
41686;BME280;27370;42.764;23.432;2023-07-20T04:41:19;95221.91;;;19.93;100.00
41686;BME280;27370;42.764;23.432;2023-07-20T04:43:47;95213.94;;;19.95;100.00
41686;BME280;27370;42.764;23.432;2023-07-20T04:46:17;95208.09;;;20.08;100.00
41686;BME280;27370;42.764;23.432;2023-07-20T04:48:44;95213.66;;;20.28;100.00
41686;BME280;27370;42.764;23.432;2023-07-20T04:51:09;95223.53;;;20.55;100.00
41686;BME280;27370;42.764;23.432;2023-07-20T04:53:35;95222.28;;;20.76;100.00
41686;BME280;27370;42.764;23.432;2023-07-20T04:56:02;95221.25;;;20.94;100.00
41686;BME280;27370;42.764;23.432;2023-07-20T04:58:29;95222.03;;;21.21;100.00
41686;BME280;27370;42.764;23.432;2023-07-20T05:00:55;95211.38;;;21.28;100.00
41686;BME280;27370;42.764;23.432;2023-07-20T05:03:21;95215.00;;;21.40;100.00
41686;BME280;27370;42.764;23.432;2023-07-20T05:05:47;95213.88;;;21.52;100.00
41686;BME280;27370;42.764;23.432;2023-07-20T05:08:14;95207.25;;;21.44;100.00
41686;BME280;27370;42.764;23.432;2023-07-20T05:10:39;95214.16;;;21.60;100.00
41686;BME280;27370;42.764;23.432;2023-07-20T05:13:05;95215.47;;;21.64;100.00
41686;BME280;27370;42.764;23.432;2023-07-20T05:15:33;95225.41;;;21.56;100.00
41686;BME280;27370;42.764;23.432;2023-07-20T05:17:59;95223.56;;;21.74;100.00
41686;BME280;27370;42.764;23.432;2023-07-20T05:20:24;95219.50;;;21.69;100.00
41686;BME280;27370;42.764;23.432;2023-07-20T05:22:50;95213.28;;;21.74;100.00
41686;BME280;27370;42.764;23.432;2023-07-20T05:25:15;95209.06;;;21.79;100.00
41686;BME280;27370;42.764;23.432;2023-07-20T05:27:44;95209.84;;;21.85;100.00
41686;BME280;27370;42.764;23.432;2023-07-20T05:30:10;95209.19;;;21.95;100.00
41686;BME280;27370;42.764;23.432;2023-07-20T05:32:35;95214.81;;;22.07;100.00
41686;BME280;27370;42.764;23.432;2023-07-20T05:35:01;95211.16;;;22.21;100.00
41686;BME280;27370;42.764;23.432;2023-07-20T05:37:27;95214.75;;;22.38;100.00
41686;BME280;27370;42.764;23.432;2023-07-20T05:39:52;95217.81;;;22.51;100.00
41686;BME280;27370;42.764;23.432;2023-07-20T05:42:17;95210.59;;;22.59;100.00
41686;BME280;27370;42.764;23.432;2023-07-20T05:44:43;95202.88;;;22.80;100.00
41686;BME280;27370;42.764;23.432;2023-07-20T05:47:08;95218.53;;;22.89;100.00
41686;BME280;27370;42.764;23.432;2023-07-20T05:49:35;95217.56;;;23.03;100.00
41686;BME280;27370;42.764;23.432;2023-07-20T05:52:00;95220.63;;;23.16;100.00
41686;BME280;27370;42.764;23.432;2023-07-20T05:54:26;95221.16;;;23.37;100.00
41686;BME280;27370;42.764;23.432;2023-07-20T05:56:52;95219.72;;;23.64;100.00
41686;BME280;27370;42.764;23.432;2023-07-20T05:59:18;95215.19;;;23.72;100.00
41686;BME280;27370;42.764;23.432;2023-07-20T06:01:45;95215.97;;;23.84;100.00
41686;BME280;27370;42.764;23.432;2023-07-20T06:04:10;95213.19;;;24.01;100.00
41686;BME280;27370;42.764;23.432;2023-07-20T06:06:36;95198.06;;;24.35;100.00
41686;BME280;27370;42.764;23.432;2023-07-20T06:09:02;95203.06;;;24.48;100.00
41686;BME280;27370;42.764;23.432;2023-07-20T06:11:33;95213.91;;;24.46;100.00
41686;BME280;27370;42.764;23.432;2023-07-20T06:13:58;95208.59;;;24.54;100.00
41686;BME280;27370;42.764;23.432;2023-07-20T06:16:24;95203.59;;;24.35;100.00
41686;BME280;27370;42.764;23.432;2023-07-20T06:18:49;95204.56;;;24.55;100.00
41686;BME280;27370;42.764;23.432;2023-07-20T06:21:15;95196.78;;;24.48;100.00
41686;BME280;27370;42.764;23.432;2023-07-20T06:23:40;95196.25;;;24.43;100.00
41686;BME280;27370;42.764;23.432;2023-07-20T06:26:06;95188.72;;;24.50;100.00
41686;BME280;27370;42.764;23.432;2023-07-20T06:28:33;95191.50;;;24.38;100.00
41686;BME280;27370;42.764;23.432;2023-07-20T06:31:02;95190.75;;;24.38;100.00
41686;BME280;27370;42.764;23.432;2023-07-20T06:33:29;95191.25;;;24.36;100.00
41686;BME280;27370;42.764;23.432;2023-07-20T06:35:54;95174.41;;;24.34;100.00
41686;BME280;27370;42.764;23.432;2023-07-20T06:38:20;95180.34;;;24.72;100.00
41686;BME280;27370;42.764;23.432;2023-07-20T06:40:46;95173.56;;;24.67;100.00
41686;BME280;27370;42.764;23.432;2023-07-20T06:43:12;95182.59;;;24.73;100.00
41686;BME280;27370;42.764;23.432;2023-07-20T06:45:37;95185.00;;;24.99;100.00
41686;BME280;27370;42.764;23.432;2023-07-20T06:48:03;95182.34;;;25.24;100.00
41686;BME280;27370;42.764;23.432;2023-07-20T06:50:29;95186.75;;;25.79;100.00
41686;BME280;27370;42.764;23.432;2023-07-20T06:52:56;95186.38;;;25.94;100.00
41686;BME280;27370;42.764;23.432;2023-07-20T06:55:22;95183.97;;;25.79;100.00
41686;BME280;27370;42.764;23.432;2023-07-20T06:57:47;95183.34;;;25.68;100.00
41686;BME280;27370;42.764;23.432;2023-07-20T07:00:13;95189.13;;;25.64;100.00
41686;BME280;27370;42.764;23.432;2023-07-20T07:02:39;95198.25;;;25.59;100.00
41686;BME280;27370;42.764;23.432;2023-07-20T07:05:05;95199.03;;;25.54;100.00
41686;BME280;27370;42.764;23.432;2023-07-20T07:07:31;95200.75;;;25.62;100.00
41686;BME280;27370;42.764;23.432;2023-07-20T07:09:57;95202.59;;;25.49;100.00
41686;BME280;27370;42.764;23.432;2023-07-20T07:12:22;95209.34;;;25.59;100.00
41686;BME280;27370;42.764;23.432;2023-07-20T07:14:48;95207.31;;;25.95;100.00
41686;BME280;27370;42.764;23.432;2023-07-20T07:17:15;95218.34;;;26.31;100.00
41686;BME280;27370;42.764;23.432;2023-07-20T07:19:40;95228.19;;;26.32;100.00
41686;BME280;27370;42.764;23.432;2023-07-20T07:22:07;95242.28;;;26.34;100.00
41686;BME280;27370;42.764;23.432;2023-07-20T07:24:32;95244.06;;;26.37;100.00
41686;BME280;27370;42.764;23.432;2023-07-20T07:27:00;95236.19;;;26.11;100.00
41686;BME280;27370;42.764;23.432;2023-07-20T07:29:25;95246.16;;;25.95;100.00
41686;BME280;27370;42.764;23.432;2023-07-20T07:31:51;95250.09;;;25.75;100.00
41686;BME280;27370;42.764;23.432;2023-07-20T07:34:17;95239.06;;;25.64;100.00
41686;BME280;27370;42.764;23.432;2023-07-20T07:36:43;95227.41;;;26.07;100.00
41686;BME280;27370;42.764;23.432;2023-07-20T07:39:08;95231.78;;;26.27;100.00
41686;BME280;27370;42.764;23.432;2023-07-20T07:41:35;95227.03;;;26.46;100.00
41686;BME280;27370;42.764;23.432;2023-07-20T07:44:00;95216.97;;;26.43;100.00
41686;BME280;27370;42.764;23.432;2023-07-20T07:46:26;95234.91;;;26.66;100.00
41686;BME280;27370;42.764;23.432;2023-07-20T07:48:51;95219.06;;;26.61;100.00
41686;BME280;27370;42.764;23.432;2023-07-20T07:51:17;95221.44;;;26.76;100.00
41686;BME280;27370;42.764;23.432;2023-07-20T07:53:42;95192.19;;;26.94;100.00
41686;BME280;27370;42.764;23.432;2023-07-20T07:56:09;95182.56;;;26.95;100.00
41686;BME280;27370;42.764;23.432;2023-07-20T07:58:34;95185.03;;;26.98;100.00
41686;BME280;27370;42.764;23.432;2023-07-20T08:01:00;95183.00;;;26.99;100.00
41686;BME280;27370;42.764;23.432;2023-07-20T08:03:26;95192.66;;;27.17;100.00
41686;BME280;27370;42.764;23.432;2023-07-20T08:05:54;95190.69;;;27.30;100.00
41686;BME280;27370;42.764;23.432;2023-07-20T08:08:21;95198.94;;;27.36;100.00
41686;BME280;27370;42.764;23.432;2023-07-20T08:10:46;95218.69;;;27.51;100.00
41686;BME280;27370;42.764;23.432;2023-07-20T08:13:13;95220.72;;;27.51;100.00
41686;BME280;27370;42.764;23.432;2023-07-20T08:15:39;95229.44;;;27.60;100.00
41686;BME280;27370;42.764;23.432;2023-07-20T08:18:05;95230.81;;;27.54;100.00
41686;BME280;27370;42.764;23.432;2023-07-20T08:20:31;95225.56;;;27.31;100.00
41686;BME280;27370;42.764;23.432;2023-07-20T08:22:57;95227.34;;;27.48;100.00
41686;BME280;27370;42.764;23.432;2023-07-20T08:25:25;95215.91;;;27.51;100.00
41686;BME280;27370;42.764;23.432;2023-07-20T08:27:51;95209.59;;;27.51;100.00
41686;BME280;27370;42.764;23.432;2023-07-20T08:30:16;95218.13;;;27.39;100.00
41686;BME280;27370;42.764;23.432;2023-07-20T08:32:42;95215.56;;;27.23;100.00
41686;BME280;27370;42.764;23.432;2023-07-20T08:35:08;95207.88;;;27.10;100.00
41686;BME280;27370;42.764;23.432;2023-07-20T08:37:34;95204.38;;;27.09;100.00
41686;BME280;27370;42.764;23.432;2023-07-20T08:39:59;95202.34;;;27.10;100.00
41686;BME280;27370;42.764;23.432;2023-07-20T08:42:25;95224.44;;;27.21;100.00
41686;BME280;27370;42.764;23.432;2023-07-20T08:44:52;95206.47;;;27.41;100.00
41686;BME280;27370;42.764;23.432;2023-07-20T08:47:19;95200.13;;;27.59;100.00
41686;BME280;27370;42.764;23.432;2023-07-20T08:49:48;95193.03;;;27.77;100.00
41686;BME280;27370;42.764;23.432;2023-07-20T08:52:14;95205.09;;;27.66;100.00
41686;BME280;27370;42.764;23.432;2023-07-20T08:54:40;95197.50;;;27.99;100.00
41686;BME280;27370;42.764;23.432;2023-07-20T08:57:05;95200.00;;;28.16;100.00
41686;BME280;27370;42.764;23.432;2023-07-20T08:59:32;95197.84;;;28.22;100.00
41686;BME280;27370;42.764;23.432;2023-07-20T09:01:59;95201.31;;;28.28;100.00
41686;BME280;27370;42.764;23.432;2023-07-20T09:04:25;95195.94;;;28.17;100.00
41686;BME280;27370;42.764;23.432;2023-07-20T09:06:51;95196.50;;;28.28;100.00
41686;BME280;27370;42.764;23.432;2023-07-20T09:09:17;95187.22;;;28.52;100.00
41686;BME280;27370;42.764;23.432;2023-07-20T09:11:46;95184.44;;;28.52;100.00
41686;BME280;27370;42.764;23.432;2023-07-20T09:14:11;95190.09;;;28.60;100.00
41686;BME280;27370;42.764;23.432;2023-07-20T09:16:54;95187.63;;;28.70;100.00
41686;BME280;27370;42.764;23.432;2023-07-20T09:19:20;95175.41;;;28.73;100.00
41686;BME280;27370;42.764;23.432;2023-07-20T09:21:48;95174.22;;;28.81;100.00
41686;BME280;27370;42.764;23.432;2023-07-20T09:24:14;95170.81;;;28.75;100.00
41686;BME280;27370;42.764;23.432;2023-07-20T09:26:42;95173.69;;;28.83;100.00
41686;BME280;27370;42.764;23.432;2023-07-20T09:29:11;95169.84;;;28.99;100.00
41686;BME280;27370;42.764;23.432;2023-07-20T09:31:37;95166.03;;;29.23;100.00
41686;BME280;27370;42.764;23.432;2023-07-20T09:34:04;95165.84;;;29.42;100.00
41686;BME280;27370;42.764;23.432;2023-07-20T09:36:35;95156.69;;;29.54;100.00
41686;BME280;27370;42.764;23.432;2023-07-20T09:39:02;95157.16;;;29.87;100.00
41686;BME280;27370;42.764;23.432;2023-07-20T09:41:29;95159.56;;;30.04;100.00
41686;BME280;27370;42.764;23.432;2023-07-20T09:43:55;95164.53;;;30.18;100.00
41686;BME280;27370;42.764;23.432;2023-07-20T09:46:20;95167.38;;;30.26;100.00
41686;BME280;27370;42.764;23.432;2023-07-20T09:48:53;95163.94;;;30.41;100.00
41686;BME280;27370;42.764;23.432;2023-07-20T09:51:22;95161.00;;;30.75;100.00
41686;BME280;27370;42.764;23.432;2023-07-20T09:53:49;95157.22;;;31.01;100.00
41686;BME280;27370;42.764;23.432;2023-07-20T09:56:16;95148.94;;;31.24;100.00
41686;BME280;27370;42.764;23.432;2023-07-20T09:58:44;95132.63;;;30.63;100.00
41686;BME280;27370;42.764;23.432;2023-07-20T10:01:11;95136.56;;;30.39;100.00
41686;BME280;27370;42.764;23.432;2023-07-20T10:03:41;95136.56;;;30.39;100.00
41686;BME280;27370;42.764;23.432;2023-07-20T10:06:10;95128.22;;;29.98;100.00
41686;BME280;27370;42.764;23.432;2023-07-20T10:08:41;95113.81;;;29.86;100.00
41686;BME280;27370;42.764;23.432;2023-07-20T10:11:07;95124.56;;;29.61;100.00
41686;BME280;27370;42.764;23.432;2023-07-20T10:13:38;95136.22;;;29.52;100.00
41686;BME280;27370;42.764;23.432;2023-07-20T10:16:09;95147.19;;;29.37;100.00
41686;BME280;27370;42.764;23.432;2023-07-20T10:21:23;95136.81;;;29.58;100.00
41686;BME280;27370;42.764;23.432;2023-07-20T10:23:50;95141.06;;;29.51;100.00
41686;BME280;27370;42.764;23.432;2023-07-20T10:26:15;95128.44;;;29.58;100.00
41686;BME280;27370;42.764;23.432;2023-07-20T10:28:41;95141.34;;;29.27;100.00
41686;BME280;27370;42.764;23.432;2023-07-20T10:31:12;95149.16;;;29.28;100.00
41686;BME280;27370;42.764;23.432;2023-07-20T10:33:38;95147.81;;;29.09;100.00
41686;BME280;27370;42.764;23.432;2023-07-20T10:36:05;95144.28;;;29.08;100.00
41686;BME280;27370;42.764;23.432;2023-07-20T10:41:34;95109.59;;;29.17;100.00
41686;BME280;27370;42.764;23.432;2023-07-20T10:44:01;95119.25;;;29.16;100.00
41686;BME280;27370;42.764;23.432;2023-07-20T10:47:00;95135.19;;;29.08;100.00
41686;BME280;27370;42.764;23.432;2023-07-20T10:49:26;95136.44;;;29.20;100.00
41686;BME280;27370;42.764;23.432;2023-07-20T10:51:58;95132.34;;;29.21;100.00
41686;BME280;27370;42.764;23.432;2023-07-20T10:56:50;95087.09;;;29.49;100.00
41686;BME280;27370;42.764;23.432;2023-07-20T11:01:54;95080.09;;;29.84;100.00
41686;BME280;27370;42.764;23.432;2023-07-20T11:04:40;95080.78;;;29.98;100.00
41686;BME280;27370;42.764;23.432;2023-07-20T11:07:06;95086.34;;;29.98;100.00
41686;BME280;27370;42.764;23.432;2023-07-20T11:09:36;95089.97;;;29.85;100.00
41686;BME280;27370;42.764;23.432;2023-07-20T11:12:18;95075.47;;;29.86;100.00
41686;BME280;27370;42.764;23.432;2023-07-20T11:14:57;95083.16;;;29.94;100.00
41686;BME280;27370;42.764;23.432;2023-07-20T11:17:31;95083.75;;;30.00;100.00
41686;BME280;27370;42.764;23.432;2023-07-20T11:19:59;95076.94;;;30.08;100.00
41686;BME280;27370;42.764;23.432;2023-07-20T11:22:30;95085.97;;;29.94;100.00
41686;BME280;27370;42.764;23.432;2023-07-20T11:24:56;95083.16;;;29.94;100.00
41686;BME280;27370;42.764;23.432;2023-07-20T11:27:22;95089.28;;;30.13;100.00
41686;BME280;27370;42.764;23.432;2023-07-20T11:29:48;95082.88;;;30.05;100.00
41686;BME280;27370;42.764;23.432;2023-07-20T11:32:20;95072.97;;;30.25;100.00
41686;BME280;27370;42.764;23.432;2023-07-20T11:34:47;95074.38;;;30.46;100.00
41686;BME280;27370;42.764;23.432;2023-07-20T11:37:13;95071.72;;;30.33;100.00
41686;BME280;27370;42.764;23.432;2023-07-20T11:39:39;95062.69;;;30.20;100.00
41686;BME280;27370;42.764;23.432;2023-07-20T11:42:05;95053.25;;;30.30;100.00
41686;BME280;27370;42.764;23.432;2023-07-20T11:44:32;95062.81;;;30.78;100.00
41686;BME280;27370;42.764;23.432;2023-07-20T11:47:10;95063.41;;;31.00;100.00
41686;BME280;27370;42.764;23.432;2023-07-20T11:49:44;95068.00;;;31.41;100.00
41686;BME280;27370;42.764;23.432;2023-07-20T11:52:13;95045.81;;;31.58;100.00
41686;BME280;27370;42.764;23.432;2023-07-20T11:54:41;95060.19;;;31.85;100.00
41686;BME280;27370;42.764;23.432;2023-07-20T11:57:07;95055.16;;;31.76;100.00
41686;BME280;27370;42.764;23.432;2023-07-20T11:59:53;95054.03;;;31.72;100.00
41686;BME280;27370;42.764;23.432;2023-07-20T12:02:21;95047.84;;;31.65;100.00
41686;BME280;27370;42.764;23.432;2023-07-20T12:04:47;95041.53;;;31.73;100.00
41686;BME280;27370;42.764;23.432;2023-07-20T12:07:13;95033.28;;;32.05;100.00
41686;BME280;27370;42.764;23.432;2023-07-20T12:09:38;95029.66;;;32.35;100.00
41686;BME280;27370;42.764;23.432;2023-07-20T12:12:09;95031.25;;;31.98;100.00
41686;BME280;27370;42.764;23.432;2023-07-20T12:14:37;95028.03;;;32.17;100.00
41686;BME280;27370;42.764;23.432;2023-07-20T12:17:03;95036.75;;;32.44;100.00
41686;BME280;27370;42.764;23.432;2023-07-20T12:19:28;95036.41;;;32.24;100.00
41686;BME280;27370;42.764;23.432;2023-07-20T12:21:58;95030.81;;;32.17;100.00
41686;BME280;27370;42.764;23.432;2023-07-20T12:24:24;95024.44;;;32.32;100.00
41686;BME280;27370;42.764;23.432;2023-07-20T12:26:56;95023.31;;;32.35;100.00
41686;BME280;27370;42.764;23.432;2023-07-20T12:29:23;95024.00;;;32.50;100.00
41686;BME280;27370;42.764;23.432;2023-07-20T12:31:48;95019.16;;;32.91;100.00
41686;BME280;27370;42.764;23.432;2023-07-20T12:34:14;95015.31;;;33.11;100.00
41686;BME280;27370;42.764;23.432;2023-07-20T12:36:40;95009.53;;;33.09;100.00
41686;BME280;27370;42.764;23.432;2023-07-20T12:39:05;95005.25;;;33.33;100.00
41686;BME280;27370;42.764;23.432;2023-07-20T12:41:31;95001.16;;;33.27;100.00
41686;BME280;27370;42.764;23.432;2023-07-20T12:43:56;95006.84;;;33.44;100.00
41686;BME280;27370;42.764;23.432;2023-07-20T12:46:23;95002.88;;;33.47;100.00
41686;BME280;27370;42.764;23.432;2023-07-20T12:48:49;95003.19;;;33.59;100.00
41686;BME280;27370;42.764;23.432;2023-07-20T12:51:15;94996.16;;;33.67;100.00
41686;BME280;27370;42.764;23.432;2023-07-20T12:53:40;94992.63;;;33.67;100.00
41686;BME280;27370;42.764;23.432;2023-07-20T12:56:06;94982.63;;;33.56;100.00
41686;BME280;27370;42.764;23.432;2023-07-20T12:58:31;94984.63;;;33.38;100.00
41686;BME280;27370;42.764;23.432;2023-07-20T13:00:57;94985.09;;;33.69;100.00